Terminal Aerodrome Forecast
Issued by NWS

Current Version | Previous Version | Graphics & Text | Print | Product List | Glossary On
Versions: 1 2 3 4 5 6 7 8 9 10 11 12 13 14 15 16 17 18 19 20 21 22 23 24 25 26 27
000
FTUS41 KRLX 202300
TAFCKB
TAF
KCKB 202325Z 2100/2124 29003KT P6SM SCT040 BKN100 BKN120
     FM210400 00000KT 6SM BR SCT250
     FM210800 00000KT 3SM BR SCT090
     FM210900 00000KT 1 1/2SM BR SCT080
     FM211200 00000KT 3SM BR SCT080
     FM211300 00000KT P6SM SCT060=

USA.gov is the U.S. government's official web portal to all federal, state and local government web resources and services.